sensor_id;sensor_type;location;lat;lon;timestamp;pressure;altitude;pressure_sealevel;temperature;humidity
79150;BME280;68563;45.644;13.782;2023-04-19T00:00:18;101111.22;;;15.29;47.78
79150;BME280;68563;45.644;13.782;2023-04-19T00:02:44;101078.94;;;15.33;47.72
79150;BME280;68563;45.644;13.782;2023-04-19T00:05:09;101115.59;;;15.28;47.74
79150;BME280;68563;45.644;13.782;2023-04-19T00:07:37;101088.47;;;15.34;47.54
79150;BME280;68563;45.644;13.782;2023-04-19T00:10:03;101089.22;;;15.39;47.33
79150;BME280;68563;45.644;13.782;2023-04-19T00:12:28;101089.16;;;15.42;47.03
79150;BME280;68563;45.644;13.782;2023-04-19T00:14:54;101128.97;;;15.49;47.00
79150;BME280;68563;45.644;13.782;2023-04-19T00:17:19;101114.31;;;15.45;47.13
79150;BME280;68563;45.644;13.782;2023-04-19T00:19:45;101110.75;;;15.47;47.17
79150;BME280;68563;45.644;13.782;2023-04-19T00:22:11;101121.25;;;15.46;47.32
79150;BME280;68563;45.644;13.782;2023-04-19T00:24:36;101102.06;;;15.47;47.37
79150;BME280;68563;45.644;13.782;2023-04-19T00:27:01;101104.69;;;15.47;47.44
79150;BME280;68563;45.644;13.782;2023-04-19T00:29:27;101095.09;;;15.47;47.74
79150;BME280;68563;45.644;13.782;2023-04-19T00:31:53;101110.91;;;15.41;48.09
79150;BME280;68563;45.644;13.782;2023-04-19T00:34:18;101077.06;;;15.38;47.90
79150;BME280;68563;45.644;13.782;2023-04-19T00:36:44;101096.22;;;15.37;47.84
79150;BME280;68563;45.644;13.782;2023-04-19T00:39:09;101116.13;;;15.41;47.85
79150;BME280;68563;45.644;13.782;2023-04-19T00:41:35;101099.66;;;15.39;47.96
79150;BME280;68563;45.644;13.782;2023-04-19T00:44:00;101092.69;;;15.40;47.63
79150;BME280;68563;45.644;13.782;2023-04-19T00:46:26;101091.00;;;15.37;47.97
79150;BME280;68563;45.644;13.782;2023-04-19T00:48:52;101086.97;;;15.25;48.30
79150;BME280;68563;45.644;13.782;2023-04-19T00:51:19;101088.81;;;15.22;48.02
79150;BME280;68563;45.644;13.782;2023-04-19T00:53:44;101090.53;;;15.23;48.18
79150;BME280;68563;45.644;13.782;2023-04-19T00:56:11;101101.81;;;15.23;47.80
79150;BME280;68563;45.644;13.782;2023-04-19T00:58:37;101073.94;;;15.25;47.77
79150;BME280;68563;45.644;13.782;2023-04-19T01:01:03;101084.47;;;15.21;47.97
79150;BME280;68563;45.644;13.782;2023-04-19T01:03:29;101076.56;;;15.24;47.68
79150;BME280;68563;45.644;13.782;2023-04-19T01:05:55;101081.66;;;15.30;47.81
79150;BME280;68563;45.644;13.782;2023-04-19T01:08:21;101077.44;;;15.24;47.79
79150;BME280;68563;45.644;13.782;2023-04-19T01:10:47;101072.09;;;15.29;47.57
79150;BME280;68563;45.644;13.782;2023-04-19T01:13:12;101065.28;;;15.23;48.09
79150;BME280;68563;45.644;13.782;2023-04-19T01:15:37;101098.34;;;15.23;47.95
79150;BME280;68563;45.644;13.782;2023-04-19T01:18:03;101063.66;;;15.18;47.74
79150;BME280;68563;45.644;13.782;2023-04-19T01:20:29;101059.22;;;15.23;47.98
79150;BME280;68563;45.644;13.782;2023-04-19T01:22:54;101060.09;;;15.22;47.84
79150;BME280;68563;45.644;13.782;2023-04-19T01:25:19;101066.06;;;15.27;47.45
79150;BME280;68563;45.644;13.782;2023-04-19T01:27:45;101054.88;;;15.22;47.63
79150;BME280;68563;45.644;13.782;2023-04-19T01:30:11;101064.38;;;15.24;47.60
79150;BME280;68563;45.644;13.782;2023-04-19T01:32:36;101065.09;;;15.29;47.63
79150;BME280;68563;45.644;13.782;2023-04-19T01:35:02;101044.34;;;15.26;47.66
79150;BME280;68563;45.644;13.782;2023-04-19T01:37:27;101047.06;;;15.22;47.94
79150;BME280;68563;45.644;13.782;2023-04-19T01:39:53;101040.06;;;15.22;47.84
79150;BME280;68563;45.644;13.782;2023-04-19T01:42:18;101040.97;;;15.21;47.79
79150;BME280;68563;45.644;13.782;2023-04-19T01:44:43;101021.97;;;15.16;48.08
79150;BME280;68563;45.644;13.782;2023-04-19T01:47:09;101042.03;;;15.14;47.67
79150;BME280;68563;45.644;13.782;2023-04-19T01:49:34;101023.69;;;15.17;47.68
79150;BME280;68563;45.644;13.782;2023-04-19T01:52:00;101027.09;;;15.21;47.66
79150;BME280;68563;45.644;13.782;2023-04-19T01:54:25;101022.72;;;15.21;47.70
79150;BME280;68563;45.644;13.782;2023-04-19T01:56:51;101022.75;;;15.20;47.64
79150;BME280;68563;45.644;13.782;2023-04-19T01:59:16;101024.44;;;15.22;47.63
79150;BME280;68563;45.644;13.782;2023-04-19T02:01:42;101027.97;;;15.20;47.33
79150;BME280;68563;45.644;13.782;2023-04-19T02:04:10;101033.19;;;15.20;47.36
79150;BME280;68563;45.644;13.782;2023-04-19T02:06:35;101035.75;;;15.21;47.92
79150;BME280;68563;45.644;13.782;2023-04-19T02:09:01;101040.06;;;15.22;47.64
79150;BME280;68563;45.644;13.782;2023-04-19T02:11:26;101062.72;;;15.20;47.63
79150;BME280;68563;45.644;13.782;2023-04-19T02:13:51;101028.03;;;15.16;47.44
79150;BME280;68563;45.644;13.782;2023-04-19T02:16:17;101042.00;;;15.15;47.45
79150;BME280;68563;45.644;13.782;2023-04-19T02:18:42;101036.66;;;15.20;47.49
79150;BME280;68563;45.644;13.782;2023-04-19T02:21:08;101028.97;;;15.15;47.15
79150;BME280;68563;45.644;13.782;2023-04-19T02:23:34;101036.69;;;15.19;47.20
79150;BME280;68563;45.644;13.782;2023-04-19T02:26:00;101019.25;;;15.21;47.82
79150;BME280;68563;45.644;13.782;2023-04-19T02:28:28;101003.00;;;15.09;47.51
79150;BME280;68563;45.644;13.782;2023-04-19T02:30:54;101015.91;;;15.15;47.24
79150;BME280;68563;45.644;13.782;2023-04-19T02:33:21;101010.53;;;15.22;47.29
79150;BME280;68563;45.644;13.782;2023-04-19T02:35:46;101002.94;;;15.12;47.42
79150;BME280;68563;45.644;13.782;2023-04-19T02:38:12;101004.88;;;15.06;48.02
79150;BME280;68563;45.644;13.782;2023-04-19T02:40:37;101017.88;;;15.07;47.90
79150;BME280;68563;45.644;13.782;2023-04-19T02:43:02;101007.59;;;15.01;48.14
79150;BME280;68563;45.644;13.782;2023-04-19T02:45:28;101010.94;;;15.06;48.37
79150;BME280;68563;45.644;13.782;2023-04-19T02:47:54;101005.72;;;15.06;48.52
79150;BME280;68563;45.644;13.782;2023-04-19T02:50:19;101010.09;;;15.04;48.63
79150;BME280;68563;45.644;13.782;2023-04-19T02:52:44;101001.16;;;15.14;48.32
79150;BME280;68563;45.644;13.782;2023-04-19T02:55:10;100998.63;;;15.11;48.49
79150;BME280;68563;45.644;13.782;2023-04-19T02:57:35;100999.66;;;15.06;48.45
79150;BME280;68563;45.644;13.782;2023-04-19T03:00:01;100986.63;;;15.04;48.67
79150;BME280;68563;45.644;13.782;2023-04-19T03:02:26;101002.44;;;14.98;48.78
79150;BME280;68563;45.644;13.782;2023-04-19T03:04:51;101010.31;;;14.96;48.86
79150;BME280;68563;45.644;13.782;2023-04-19T03:07:17;101001.50;;;15.00;48.76
79150;BME280;68563;45.644;13.782;2023-04-19T03:09:42;101005.06;;;14.98;48.87
79150;BME280;68563;45.644;13.782;2023-04-19T03:12:08;100999.94;;;14.95;49.89
79150;BME280;68563;45.644;13.782;2023-04-19T03:14:33;101008.56;;;14.97;50.07
79150;BME280;68563;45.644;13.782;2023-04-19T03:16:59;101014.72;;;14.94;50.14
79150;BME280;68563;45.644;13.782;2023-04-19T03:19:24;101007.63;;;14.99;50.57
79150;BME280;68563;45.644;13.782;2023-04-19T03:21:49;101000.72;;;14.97;49.82
79150;BME280;68563;45.644;13.782;2023-04-19T03:24:17;101010.22;;;14.99;49.84
79150;BME280;68563;45.644;13.782;2023-04-19T03:26:42;101005.94;;;14.97;49.21
79150;BME280;68563;45.644;13.782;2023-04-19T03:29:07;101002.44;;;14.98;49.34
79150;BME280;68563;45.644;13.782;2023-04-19T03:31:33;101000.66;;;15.00;49.09
79150;BME280;68563;45.644;13.782;2023-04-19T03:33:58;100998.13;;;14.97;48.76
79150;BME280;68563;45.644;13.782;2023-04-19T03:36:24;100985.13;;;14.95;49.65
79150;BME280;68563;45.644;13.782;2023-04-19T03:38:49;100993.97;;;14.90;49.35
79150;BME280;68563;45.644;13.782;2023-04-19T03:41:33;100985.97;;;14.96;48.54
79150;BME280;68563;45.644;13.782;2023-04-19T03:43:58;100976.31;;;15.01;48.78
79150;BME280;68563;45.644;13.782;2023-04-19T03:46:24;100992.91;;;14.97;49.50
79150;BME280;68563;45.644;13.782;2023-04-19T03:48:50;100983.41;;;14.94;50.15
79150;BME280;68563;45.644;13.782;2023-04-19T03:51:16;100988.75;;;14.90;50.31
79150;BME280;68563;45.644;13.782;2023-04-19T03:53:42;100993.16;;;14.88;49.21
79150;BME280;68563;45.644;13.782;2023-04-19T03:56:07;100995.78;;;14.88;49.11
79150;BME280;68563;45.644;13.782;2023-04-19T03:58:33;100987.28;;;14.79;48.80
79150;BME280;68563;45.644;13.782;2023-04-19T04:00:58;100994.13;;;14.83;49.14
79150;BME280;68563;45.644;13.782;2023-04-19T04:03:24;101007.16;;;14.83;48.88
79150;BME280;68563;45.644;13.782;2023-04-19T04:05:49;100998.34;;;14.89;48.71
79150;BME280;68563;45.644;13.782;2023-04-19T04:08:15;100999.44;;;14.80;48.92
79150;BME280;68563;45.644;13.782;2023-04-19T04:10:40;100996.06;;;14.75;49.10
79150;BME280;68563;45.644;13.782;2023-04-19T04:13:06;100991.63;;;14.79;48.99
79150;BME280;68563;45.644;13.782;2023-04-19T04:15:31;100989.97;;;14.76;48.88
79150;BME280;68563;45.644;13.782;2023-04-19T04:17:56;100995.88;;;14.83;48.99
79150;BME280;68563;45.644;13.782;2023-04-19T04:20:22;100998.50;;;14.83;49.19
79150;BME280;68563;45.644;13.782;2023-04-19T04:22:47;100997.72;;;14.79;48.27
79150;BME280;68563;45.644;13.782;2023-04-19T04:25:13;101003.63;;;14.86;48.35
79150;BME280;68563;45.644;13.782;2023-04-19T04:27:40;100994.22;;;14.80;48.17
79150;BME280;68563;45.644;13.782;2023-04-19T04:30:07;100995.06;;;14.81;48.51
79150;BME280;68563;45.644;13.782;2023-04-19T04:32:33;100999.28;;;14.85;48.20
79150;BME280;68563;45.644;13.782;2023-04-19T04:35:03;100996.63;;;14.88;47.91
79150;BME280;68563;45.644;13.782;2023-04-19T04:37:31;100987.03;;;14.89;48.23
79150;BME280;68563;45.644;13.782;2023-04-19T04:39:58;100994.06;;;14.87;48.56
79150;BME280;68563;45.644;13.782;2023-04-19T04:42:24;100995.00;;;14.84;48.61
79150;BME280;68563;45.644;13.782;2023-04-19T04:44:50;100986.41;;;14.79;48.29
79150;BME280;68563;45.644;13.782;2023-04-19T04:47:16;100993.97;;;14.90;48.16
79150;BME280;68563;45.644;13.782;2023-04-19T04:49:41;100987.97;;;14.86;47.96
79150;BME280;68563;45.644;13.782;2023-04-19T04:52:07;100997.41;;;14.92;48.03
79150;BME280;68563;45.644;13.782;2023-04-19T04:54:33;100993.00;;;14.94;47.99
79150;BME280;68563;45.644;13.782;2023-04-19T04:56:58;100999.94;;;14.93;48.07
79150;BME280;68563;45.644;13.782;2023-04-19T04:59:25;101002.53;;;14.95;48.10
79150;BME280;68563;45.644;13.782;2023-04-19T05:01:51;100996.44;;;14.94;47.85
79150;BME280;68563;45.644;13.782;2023-04-19T05:04:17;100998.22;;;14.92;48.31
79150;BME280;68563;45.644;13.782;2023-04-19T05:06:43;101001.88;;;14.87;48.88
79150;BME280;68563;45.644;13.782;2023-04-19T05:09:09;101000.13;;;14.87;48.43
79150;BME280;68563;45.644;13.782;2023-04-19T05:11:34;100997.47;;;14.89;48.16
79150;BME280;68563;45.644;13.782;2023-04-19T05:14:00;101005.22;;;14.92;48.37
79150;BME280;68563;45.644;13.782;2023-04-19T05:16:26;101000.81;;;14.94;47.92
79150;BME280;68563;45.644;13.782;2023-04-19T05:18:52;100993.03;;;14.92;48.21
79150;BME280;68563;45.644;13.782;2023-04-19T05:21:17;100985.25;;;14.91;48.33
79150;BME280;68563;45.644;13.782;2023-04-19T05:23:42;100995.78;;;14.86;48.58
79150;BME280;68563;45.644;13.782;2023-04-19T05:26:08;100994.13;;;14.83;48.95
79150;BME280;68563;45.644;13.782;2023-04-19T05:28:37;101002.78;;;14.86;48.67
79150;BME280;68563;45.644;13.782;2023-04-19T05:31:02;100973.19;;;14.87;48.11
79150;BME280;68563;45.644;13.782;2023-04-19T05:33:28;100975.69;;;14.91;48.23
79150;BME280;68563;45.644;13.782;2023-04-19T05:35:53;100964.47;;;14.88;48.11
79150;BME280;68563;45.644;13.782;2023-04-19T05:38:19;100968.88;;;14.86;48.36
79150;BME280;68563;45.644;13.782;2023-04-19T05:40:44;100973.09;;;14.90;48.54
79150;BME280;68563;45.644;13.782;2023-04-19T05:43:10;100979.22;;;14.89;49.17
79150;BME280;68563;45.644;13.782;2023-04-19T05:45:35;100962.75;;;14.87;49.22
79150;BME280;68563;45.644;13.782;2023-04-19T05:48:01;101001.88;;;14.87;49.68
79150;BME280;68563;45.644;13.782;2023-04-19T05:50:26;100971.69;;;14.76;49.89
79150;BME280;68563;45.644;13.782;2023-04-19T05:52:51;100965.69;;;14.74;50.59
79150;BME280;68563;45.644;13.782;2023-04-19T05:55:17;100975.13;;;14.78;50.52
79150;BME280;68563;45.644;13.782;2023-04-19T05:57:42;100964.81;;;14.74;49.80
79150;BME280;68563;45.644;13.782;2023-04-19T06:00:08;100973.53;;;14.73;49.98
79150;BME280;68563;45.644;13.782;2023-04-19T06:02:34;100970.19;;;14.67;49.97
79150;BME280;68563;45.644;13.782;2023-04-19T06:05:00;100963.28;;;14.65;50.14
79150;BME280;68563;45.644;13.782;2023-04-19T06:07:28;100962.41;;;14.64;49.83
79150;BME280;68563;45.644;13.782;2023-04-19T06:09:54;100971.09;;;14.66;49.44
79150;BME280;68563;45.644;13.782;2023-04-19T06:12:20;100972.59;;;14.75;48.78
79150;BME280;68563;45.644;13.782;2023-04-19T06:14:45;100966.75;;;14.67;48.97
79150;BME280;68563;45.644;13.782;2023-04-19T06:17:10;100969.16;;;14.75;48.38
79150;BME280;68563;45.644;13.782;2023-04-19T06:19:36;100972.53;;;14.78;48.99
79150;BME280;68563;45.644;13.782;2023-04-19T06:22:01;100972.41;;;14.83;48.71
79150;BME280;68563;45.644;13.782;2023-04-19T06:24:27;100967.97;;;14.87;48.61
79150;BME280;68563;45.644;13.782;2023-04-19T06:26:52;100971.44;;;14.87;47.81
79150;BME280;68563;45.644;13.782;2023-04-19T06:29:17;100975.75;;;14.88;47.63
79150;BME280;68563;45.644;13.782;2023-04-19T06:31:46;100975.69;;;14.91;47.42
79150;BME280;68563;45.644;13.782;2023-04-19T06:34:11;100969.53;;;14.94;47.49
79150;BME280;68563;45.644;13.782;2023-04-19T06:36:37;100978.25;;;14.93;47.46
79150;BME280;68563;45.644;13.782;2023-04-19T06:39:02;100967.72;;;14.96;47.48
79150;BME280;68563;45.644;13.782;2023-04-19T06:41:28;100982.47;;;14.98;47.36
79150;BME280;68563;45.644;13.782;2023-04-19T06:43:53;100979.88;;;14.97;47.19
79150;BME280;68563;45.644;13.782;2023-04-19T06:46:19;100974.50;;;15.03;47.48
79150;BME280;68563;45.644;13.782;2023-04-19T06:48:44;100970.19;;;15.02;46.90
79150;BME280;68563;45.644;13.782;2023-04-19T06:51:09;100979.63;;;15.06;46.97
79150;BME280;68563;45.644;13.782;2023-04-19T06:53:35;100966.66;;;15.05;47.00
79150;BME280;68563;45.644;13.782;2023-04-19T06:56:02;100984.75;;;15.09;46.83
79150;BME280;68563;45.644;13.782;2023-04-19T06:58:31;100977.75;;;15.11;46.69
79150;BME280;68563;45.644;13.782;2023-04-19T07:00:58;100976.91;;;15.11;47.85
79150;BME280;68563;45.644;13.782;2023-04-19T07:03:23;100982.03;;;15.14;48.96
79150;BME280;68563;45.644;13.782;2023-04-19T07:05:49;100981.09;;;15.16;47.36
79150;BME280;68563;45.644;13.782;2023-04-19T07:08:16;100971.47;;;15.19;47.19
79150;BME280;68563;45.644;13.782;2023-04-19T07:10:41;100992.28;;;15.20;48.41
79150;BME280;68563;45.644;13.782;2023-04-19T07:13:11;100974.00;;;15.22;48.42
79150;BME280;68563;45.644;13.782;2023-04-19T07:15:36;100980.84;;;15.26;48.20
79150;BME280;68563;45.644;13.782;2023-04-19T07:18:02;100972.13;;;15.27;47.18
79150;BME280;68563;45.644;13.782;2023-04-19T07:20:27;100970.34;;;15.29;47.09
79150;BME280;68563;45.644;13.782;2023-04-19T07:22:53;100972.78;;;15.34;46.84
79150;BME280;68563;45.644;13.782;2023-04-19T07:25:18;100967.56;;;15.34;46.68
79150;BME280;68563;45.644;13.782;2023-04-19T07:27:44;100972.72;;;15.37;45.62
79150;BME280;68563;45.644;13.782;2023-04-19T07:30:09;100983.09;;;15.40;45.32
79150;BME280;68563;45.644;13.782;2023-04-19T07:32:35;100959.66;;;15.37;45.21
79150;BME280;68563;45.644;13.782;2023-04-19T07:35:00;100949.88;;;15.45;44.55
79150;BME280;68563;45.644;13.782;2023-04-19T07:37:26;100957.00;;;15.40;45.42
79150;BME280;68563;45.644;13.782;2023-04-19T07:39:52;100957.91;;;15.37;45.37
79150;BME280;68563;45.644;13.782;2023-04-19T07:42:17;100969.00;;;15.45;45.20
79150;BME280;68563;45.644;13.782;2023-04-19T07:44:43;100968.91;;;15.48;44.77
79150;BME280;68563;45.644;13.782;2023-04-19T07:47:08;100966.19;;;15.52;44.37
79150;BME280;68563;45.644;13.782;2023-04-19T07:49:33;100970.56;;;15.51;44.47
79150;BME280;68563;45.644;13.782;2023-04-19T07:52:00;100965.31;;;15.53;44.08
79150;BME280;68563;45.644;13.782;2023-04-19T07:54:28;100968.69;;;15.56;43.99
79150;BME280;68563;45.644;13.782;2023-04-19T07:56:54;100973.00;;;15.57;43.94
79150;BME280;68563;45.644;13.782;2023-04-19T07:59:20;100965.88;;;15.62;43.45
79150;BME280;68563;45.644;13.782;2023-04-19T08:01:46;100973.81;;;15.59;43.36
79150;BME280;68563;45.644;13.782;2023-04-19T08:04:11;100978.09;;;15.62;43.83
79150;BME280;68563;45.644;13.782;2023-04-19T08:06:37;100951.22;;;15.58;43.44
79150;BME280;68563;45.644;13.782;2023-04-19T08:09:04;100966.53;;;15.71;43.22
79150;BME280;68563;45.644;13.782;2023-04-19T08:11:29;100968.00;;;15.79;42.50
79150;BME280;68563;45.644;13.782;2023-04-19T08:13:55;100960.13;;;15.83;42.62
79150;BME280;68563;45.644;13.782;2023-04-19T08:16:20;100965.16;;;15.89;42.26
79150;BME280;68563;45.644;13.782;2023-04-19T08:18:45;100964.16;;;15.93;42.18
79150;BME280;68563;45.644;13.782;2023-04-19T08:21:12;100969.22;;;15.98;41.52
79150;BME280;68563;45.644;13.782;2023-04-19T08:23:37;100955.13;;;16.03;41.87
79150;BME280;68563;45.644;13.782;2023-04-19T08:26:03;100960.31;;;16.05;41.64
79150;BME280;68563;45.644;13.782;2023-04-19T08:28:28;100966.41;;;16.05;41.76
79150;BME280;68563;45.644;13.782;2023-04-19T08:30:54;100957.50;;;16.11;41.55
79150;BME280;68563;45.644;13.782;2023-04-19T08:33:19;100952.06;;;16.19;40.62
79150;BME280;68563;45.644;13.782;2023-04-19T08:35:45;100944.91;;;16.24;40.95
79150;BME280;68563;45.644;13.782;2023-04-19T08:38:10;100944.28;;;16.44;40.19
79150;BME280;68563;45.644;13.782;2023-04-19T08:40:42;100939.81;;;16.46;40.33
79150;BME280;68563;45.644;13.782;2023-04-19T08:43:09;100932.72;;;16.51;40.22
79150;BME280;68563;45.644;13.782;2023-04-19T08:45:36;100933.13;;;16.64;40.16
79150;BME280;68563;45.644;13.782;2023-04-19T08:48:01;100933.50;;;16.79;39.85
79150;BME280;68563;45.644;13.782;2023-04-19T08:50:29;100909.88;;;16.82;39.84
79150;BME280;68563;45.644;13.782;2023-04-19T08:52:57;100917.84;;;17.04;39.41
79150;BME280;68563;45.644;13.782;2023-04-19T08:55:23;100918.19;;;17.18;39.06
79150;BME280;68563;45.644;13.782;2023-04-19T08:57:49;100911.59;;;17.32;37.78
79150;BME280;68563;45.644;13.782;2023-04-19T09:00:15;100907.00;;;17.38;38.09
79150;BME280;68563;45.644;13.782;2023-04-19T09:02:51;100908.34;;;17.49;38.09
79150;BME280;68563;45.644;13.782;2023-04-19T09:05:18;100904.56;;;17.56;37.87
79150;BME280;68563;45.644;13.782;2023-04-19T09:07:44;100896.41;;;17.64;38.06
79150;BME280;68563;45.644;13.782;2023-04-19T09:10:15;100902.22;;;17.72;37.10
79150;BME280;68563;45.644;13.782;2023-04-19T09:12:42;100901.47;;;17.68;37.91
79150;BME280;68563;45.644;13.782;2023-04-19T09:15:08;100897.94;;;17.69;37.91
79150;BME280;68563;45.644;13.782;2023-04-19T09:17:35;100888.44;;;17.67;37.67
79150;BME280;68563;45.644;13.782;2023-04-19T09:20:01;100884.91;;;17.68;37.71
79150;BME280;68563;45.644;13.782;2023-04-19T09:22:26;100891.91;;;17.67;37.91
79150;BME280;68563;45.644;13.782;2023-04-19T09:24:51;100881.44;;;17.67;37.55
79150;BME280;68563;45.644;13.782;2023-04-19T09:27:34;100879.78;;;17.65;37.64
79150;BME280;68563;45.644;13.782;2023-04-19T09:30:01;100873.72;;;17.64;37.54
79150;BME280;68563;45.644;13.782;2023-04-19T09:32:27;100876.25;;;17.66;37.68
79150;BME280;68563;45.644;13.782;2023-04-19T09:34:55;100873.72;;;17.64;37.19
79150;BME280;68563;45.644;13.782;2023-04-19T09:37:21;100859.81;;;17.62;37.11
79150;BME280;68563;45.644;13.782;2023-04-19T09:39:47;100870.28;;;17.62;37.18
79150;BME280;68563;45.644;13.782;2023-04-19T09:42:12;100870.44;;;17.59;41.07
79150;BME280;68563;45.644;13.782;2023-04-19T09:44:38;100859.25;;;17.54;41.86
79150;BME280;68563;45.644;13.782;2023-04-19T09:47:21;100874.31;;;17.49;42.31
79150;BME280;68563;45.644;13.782;2023-04-19T09:49:47;100858.00;;;17.42;43.40
79150;BME280;68563;45.644;13.782;2023-04-19T09:52:13;100852.03;;;17.38;43.47
79150;BME280;68563;45.644;13.782;2023-04-19T09:54:40;100847.00;;;17.32;43.07
79150;BME280;68563;45.644;13.782;2023-04-19T09:57:06;100855.72;;;17.33;42.76
79150;BME280;68563;45.644;13.782;2023-04-19T09:59:32;100854.06;;;17.30;43.22
79150;BME280;68563;45.644;13.782;2023-04-19T10:01:58;100851.69;;;17.24;44.21
79150;BME280;68563;45.644;13.782;2023-04-19T10:04:25;100844.78;;;17.21;44.83
79150;BME280;68563;45.644;13.782;2023-04-19T10:06:53;100842.38;;;17.17;45.90
79150;BME280;68563;45.644;13.782;2023-04-19T10:09:20;100837.38;;;17.11;46.52
79150;BME280;68563;45.644;13.782;2023-04-19T10:11:50;100839.19;;;17.09;45.96
79150;BME280;68563;45.644;13.782;2023-04-19T10:14:20;100839.84;;;17.14;45.92
79150;BME280;68563;45.644;13.782;2023-04-19T10:16:46;100839.19;;;17.09;46.24
79150;BME280;68563;45.644;13.782;2023-04-19T10:19:15;100826.38;;;17.01;47.04
79150;BME280;68563;45.644;13.782;2023-04-19T10:21:42;100838.44;;;17.05;47.62
79150;BME280;68563;45.644;13.782;2023-04-19T10:24:09;100838.66;;;16.99;47.51
79150;BME280;68563;45.644;13.782;2023-04-19T10:27:09;100836.91;;;16.99;47.23
79150;BME280;68563;45.644;13.782;2023-04-19T10:32:20;100830.84;;;16.97;46.62
79150;BME280;68563;45.644;13.782;2023-04-19T10:34:46;100828.44;;;16.91;45.50
79150;BME280;68563;45.644;13.782;2023-04-19T10:37:14;100822.22;;;16.95;46.06
79150;BME280;68563;45.644;13.782;2023-04-19T10:39:42;100826.56;;;16.96;44.85
79150;BME280;68563;45.644;13.782;2023-04-19T10:42:07;100816.84;;;17.00;45.13
79150;BME280;68563;45.644;13.782;2023-04-19T10:44:33;100801.75;;;17.06;45.17
79150;BME280;68563;45.644;13.782;2023-04-19T10:46:58;100799.75;;;17.13;44.23
79150;BME280;68563;45.644;13.782;2023-04-19T10:49:25;100796.41;;;17.10;44.19
79150;BME280;68563;45.644;13.782;2023-04-19T10:51:50;100795.25;;;17.17;44.20
79150;BME280;68563;45.644;13.782;2023-04-19T10:54:32;100798.47;;;17.23;44.31
79150;BME280;68563;45.644;13.782;2023-04-19T10:59:28;100782.72;;;17.25;43.81
79150;BME280;68563;45.644;13.782;2023-04-19T11:01:56;100781.63;;;17.31;43.38
79150;BME280;68563;45.644;13.782;2023-04-19T11:07:13;100780.41;;;17.39;43.96
79150;BME280;68563;45.644;13.782;2023-04-19T11:09:44;100777.84;;;17.38;43.56
79150;BME280;68563;45.644;13.782;2023-04-19T11:12:10;100773.34;;;17.42;45.22
79150;BME280;68563;45.644;13.782;2023-04-19T11:14:40;100767.28;;;17.41;44.34
79150;BME280;68563;45.644;13.782;2023-04-19T11:17:22;100766.28;;;17.44;44.39
79150;BME280;68563;45.644;13.782;2023-04-19T11:22:17;100753.75;;;17.52;44.56
79150;BME280;68563;45.644;13.782;2023-04-19T11:24:45;100753.03;;;17.48;45.09
79150;BME280;68563;45.644;13.782;2023-04-19T11:27:12;100760.66;;;17.53;45.95
79150;BME280;68563;45.644;13.782;2023-04-19T11:29:37;100761.47;;;17.55;46.32
79150;BME280;68563;45.644;13.782;2023-04-19T11:32:03;100755.44;;;17.53;47.22
79150;BME280;68563;45.644;13.782;2023-04-19T11:34:28;100762.25;;;17.57;47.49
79150;BME280;68563;45.644;13.782;2023-04-19T11:36:54;100757.03;;;17.57;48.14
79150;BME280;68563;45.644;13.782;2023-04-19T11:39:19;100746.56;;;17.57;48.42
79150;BME280;68563;45.644;13.782;2023-04-19T11:41:45;100746.38;;;17.62;48.39
79150;BME280;68563;45.644;13.782;2023-04-19T11:44:18;100743.75;;;17.62;47.81
79150;BME280;68563;45.644;13.782;2023-04-19T11:47:04;100743.59;;;17.65;47.20
79150;BME280;68563;45.644;13.782;2023-04-19T11:49:32;100739.25;;;17.65;47.47
79150;BME280;68563;45.644;13.782;2023-04-19T11:52:00;100726.91;;;17.67;47.35
79150;BME280;68563;45.644;13.782;2023-04-19T11:54:26;100731.19;;;17.70;46.94
79150;BME280;68563;45.644;13.782;2023-04-19T11:59:32;100723.25;;;17.72;47.73
79150;BME280;68563;45.644;13.782;2023-04-19T12:02:08;100728.50;;;17.72;47.33
79150;BME280;68563;45.644;13.782;2023-04-19T12:04:35;100721.56;;;17.70;47.64
79150;BME280;68563;45.644;13.782;2023-04-19T12:07:02;100721.56;;;17.70;47.81
79150;BME280;68563;45.644;13.782;2023-04-19T12:09:28;100715.59;;;17.67;47.70
79150;BME280;68563;45.644;13.782;2023-04-19T12:11:54;100702.84;;;17.59;48.52
79150;BME280;68563;45.644;13.782;2023-04-19T12:14:21;100711.41;;;17.63;48.04
79150;BME280;68563;45.644;13.782;2023-04-19T12:19:37;100702.84;;;17.59;48.06
79150;BME280;68563;45.644;13.782;2023-04-19T12:22:10;100695.88;;;17.58;47.79
79150;BME280;68563;45.644;13.782;2023-04-19T12:24:36;100695.88;;;17.58;47.62
79150;BME280;68563;45.644;13.782;2023-04-19T12:27:02;100695.88;;;17.58;47.56
79150;BME280;68563;45.644;13.782;2023-04-19T12:29:28;100690.50;;;17.61;47.98
79150;BME280;68563;45.644;13.782;2023-04-19T12:31:53;100687.78;;;17.64;47.96
79150;BME280;68563;45.644;13.782;2023-04-19T12:34:19;100685.94;;;17.66;47.36
79150;BME280;68563;45.644;13.782;2023-04-19T12:36:45;100676.38;;;17.65;47.12
79150;BME280;68563;45.644;13.782;2023-04-19T12:39:10;100688.31;;;17.73;47.00
79150;BME280;68563;45.644;13.782;2023-04-19T12:41:36;100690.97;;;17.71;46.52
79150;BME280;68563;45.644;13.782;2023-04-19T12:44:01;100698.53;;;17.79;47.31
79150;BME280;68563;45.644;13.782;2023-04-19T12:46:27;100692.16;;;17.84;47.59
79150;BME280;68563;45.644;13.782;2023-04-19T12:48:52;100696.53;;;17.84;47.67
79150;BME280;68563;45.644;13.782;2023-04-19T12:51:18;100696.19;;;17.92;48.13